sensor_id;sensor_type;location;lat;lon;timestamp;P1;durP1;ratioP1;P2;durP2;ratioP2
18076;SDS011;9165;45.714;11.362;2023-06-01T00:01:41;10.03;;;5.57;;
18076;SDS011;9165;45.714;11.362;2023-06-01T00:04:08;9.60;;;5.30;;
18076;SDS011;9165;45.714;11.362;2023-06-01T00:06:34;6.60;;;5.00;;
18076;SDS011;9165;45.714;11.362;2023-06-01T00:09:01;6.73;;;4.50;;
18076;SDS011;9165;45.714;11.362;2023-06-01T00:11:28;8.40;;;5.07;;
18076;SDS011;9165;45.714;11.362;2023-06-01T00:13:55;8.63;;;5.17;;
18076;SDS011;9165;45.714;11.362;2023-06-01T00:16:22;5.90;;;4.47;;
18076;SDS011;9165;45.714;11.362;2023-06-01T00:18:49;7.17;;;4.90;;
18076;SDS011;9165;45.714;11.362;2023-06-01T00:21:17;7.50;;;4.93;;
18076;SDS011;9165;45.714;11.362;2023-06-01T00:23:44;5.97;;;4.53;;
18076;SDS011;9165;45.714;11.362;2023-06-01T00:26:11;8.33;;;5.30;;
18076;SDS011;9165;45.714;11.362;2023-06-01T00:28:38;9.10;;;5.30;;
18076;SDS011;9165;45.714;11.362;2023-06-01T00:31:04;6.00;;;5.13;;
18076;SDS011;9165;45.714;11.362;2023-06-01T00:33:32;7.90;;;5.43;;
18076;SDS011;9165;45.714;11.362;2023-06-01T00:35:59;6.97;;;5.10;;
18076;SDS011;9165;45.714;11.362;2023-06-01T00:38:25;8.90;;;5.30;;
18076;SDS011;9165;45.714;11.362;2023-06-01T00:40:52;7.43;;;5.07;;
18076;SDS011;9165;45.714;11.362;2023-06-01T00:43:19;8.53;;;4.63;;
18076;SDS011;9165;45.714;11.362;2023-06-01T00:45:45;8.17;;;4.57;;
18076;SDS011;9165;45.714;11.362;2023-06-01T00:48:12;6.87;;;5.30;;
18076;SDS011;9165;45.714;11.362;2023-06-01T00:50:41;7.30;;;4.83;;
18076;SDS011;9165;45.714;11.362;2023-06-01T00:53:13;14.17;;;5.93;;
18076;SDS011;9165;45.714;11.362;2023-06-01T00:55:41;6.70;;;5.23;;
18076;SDS011;9165;45.714;11.362;2023-06-01T00:58:08;8.33;;;5.23;;
18076;SDS011;9165;45.714;11.362;2023-06-01T01:00:35;8.37;;;4.73;;
18076;SDS011;9165;45.714;11.362;2023-06-01T01:03:02;5.97;;;4.60;;
18076;SDS011;9165;45.714;11.362;2023-06-01T01:05:34;8.50;;;5.57;;
18076;SDS011;9165;45.714;11.362;2023-06-01T01:08:03;7.47;;;5.23;;
18076;SDS011;9165;45.714;11.362;2023-06-01T01:10:32;7.57;;;4.33;;
18076;SDS011;9165;45.714;11.362;2023-06-01T01:13:01;8.90;;;5.20;;
18076;SDS011;9165;45.714;11.362;2023-06-01T01:15:32;8.23;;;4.83;;
18076;SDS011;9165;45.714;11.362;2023-06-01T01:18:02;9.37;;;4.80;;
18076;SDS011;9165;45.714;11.362;2023-06-01T01:20:34;5.00;;;4.17;;
18076;SDS011;9165;45.714;11.362;2023-06-01T01:23:14;8.23;;;4.83;;
18076;SDS011;9165;45.714;11.362;2023-06-01T01:25:59;8.70;;;4.97;;
18076;SDS011;9165;45.714;11.362;2023-06-01T01:28:37;9.13;;;4.57;;
18076;SDS011;9165;45.714;11.362;2023-06-01T01:31:05;9.37;;;5.20;;
18076;SDS011;9165;45.714;11.362;2023-06-01T01:33:35;6.73;;;4.73;;
18076;SDS011;9165;45.714;11.362;2023-06-01T01:36:02;6.83;;;4.90;;
18076;SDS011;9165;45.714;11.362;2023-06-01T01:38:30;7.57;;;5.13;;
18076;SDS011;9165;45.714;11.362;2023-06-01T01:40:59;8.60;;;5.80;;
18076;SDS011;9165;45.714;11.362;2023-06-01T01:43:26;5.40;;;4.90;;
18076;SDS011;9165;45.714;11.362;2023-06-01T01:45:59;8.17;;;5.43;;
18076;SDS011;9165;45.714;11.362;2023-06-01T01:48:28;6.93;;;4.70;;
18076;SDS011;9165;45.714;11.362;2023-06-01T01:50:56;13.80;;;5.50;;
18076;SDS011;9165;45.714;11.362;2023-06-01T01:53:23;7.87;;;5.40;;
18076;SDS011;9165;45.714;11.362;2023-06-01T01:55:53;6.93;;;4.70;;
18076;SDS011;9165;45.714;11.362;2023-06-01T01:58:21;10.07;;;5.33;;
18076;SDS011;9165;45.714;11.362;2023-06-01T02:00:49;8.40;;;4.67;;
18076;SDS011;9165;45.714;11.362;2023-06-01T02:03:17;8.77;;;5.00;;
18076;SDS011;9165;45.714;11.362;2023-06-01T02:05:44;6.97;;;4.73;;
18076;SDS011;9165;45.714;11.362;2023-06-01T02:08:10;6.40;;;4.23;;
18076;SDS011;9165;45.714;11.362;2023-06-01T02:10:37;6.40;;;4.70;;
18076;SDS011;9165;45.714;11.362;2023-06-01T02:13:05;6.73;;;4.47;;
18076;SDS011;9165;45.714;11.362;2023-06-01T02:15:32;13.47;;;5.20;;
18076;SDS011;9165;45.714;11.362;2023-06-01T02:17:59;5.70;;;4.70;;
18076;SDS011;9165;45.714;11.362;2023-06-01T02:20:27;7.23;;;4.90;;
18076;SDS011;9165;45.714;11.362;2023-06-01T02:22:53;8.53;;;5.00;;
18076;SDS011;9165;45.714;11.362;2023-06-01T02:25:20;6.77;;;4.00;;
18076;SDS011;9165;45.714;11.362;2023-06-01T02:27:46;7.43;;;4.70;;
18076;SDS011;9165;45.714;11.362;2023-06-01T02:30:13;6.63;;;5.33;;
18076;SDS011;9165;45.714;11.362;2023-06-01T02:32:40;6.80;;;4.60;;
18076;SDS011;9165;45.714;11.362;2023-06-01T02:35:10;7.80;;;4.67;;
18076;SDS011;9165;45.714;11.362;2023-06-01T02:37:38;7.07;;;5.23;;
18076;SDS011;9165;45.714;11.362;2023-06-01T02:40:05;6.63;;;4.47;;
18076;SDS011;9165;45.714;11.362;2023-06-01T02:42:36;10.57;;;4.87;;
18076;SDS011;9165;45.714;11.362;2023-06-01T02:45:03;5.93;;;4.67;;
18076;SDS011;9165;45.714;11.362;2023-06-01T02:47:30;8.40;;;4.87;;
18076;SDS011;9165;45.714;11.362;2023-06-01T02:49:57;5.43;;;4.83;;
18076;SDS011;9165;45.714;11.362;2023-06-01T02:52:24;7.77;;;5.17;;
18076;SDS011;9165;45.714;11.362;2023-06-01T02:54:53;6.53;;;4.90;;
18076;SDS011;9165;45.714;11.362;2023-06-01T02:57:19;8.83;;;5.03;;
18076;SDS011;9165;45.714;11.362;2023-06-01T02:59:46;6.13;;;4.90;;
18076;SDS011;9165;45.714;11.362;2023-06-01T03:02:13;8.03;;;5.20;;
18076;SDS011;9165;45.714;11.362;2023-06-01T03:04:39;7.70;;;4.90;;
18076;SDS011;9165;45.714;11.362;2023-06-01T03:07:08;6.57;;;4.93;;
18076;SDS011;9165;45.714;11.362;2023-06-01T03:09:35;10.93;;;4.97;;
18076;SDS011;9165;45.714;11.362;2023-06-01T03:12:03;7.47;;;4.83;;
18076;SDS011;9165;45.714;11.362;2023-06-01T03:14:31;5.43;;;4.70;;
18076;SDS011;9165;45.714;11.362;2023-06-01T03:16:57;9.47;;;5.20;;
18076;SDS011;9165;45.714;11.362;2023-06-01T03:19:24;8.00;;;5.30;;
18076;SDS011;9165;45.714;11.362;2023-06-01T03:21:51;6.53;;;5.20;;
18076;SDS011;9165;45.714;11.362;2023-06-01T03:24:17;9.70;;;5.23;;
18076;SDS011;9165;45.714;11.362;2023-06-01T03:26:44;6.83;;;5.10;;
18076;SDS011;9165;45.714;11.362;2023-06-01T03:29:12;6.73;;;5.70;;
18076;SDS011;9165;45.714;11.362;2023-06-01T03:31:39;7.30;;;4.50;;
18076;SDS011;9165;45.714;11.362;2023-06-01T03:34:06;7.73;;;5.00;;
18076;SDS011;9165;45.714;11.362;2023-06-01T03:36:33;7.27;;;5.60;;
18076;SDS011;9165;45.714;11.362;2023-06-01T03:39:01;9.60;;;5.60;;
18076;SDS011;9165;45.714;11.362;2023-06-01T03:41:33;7.93;;;5.13;;
18076;SDS011;9165;45.714;11.362;2023-06-01T03:43:59;13.90;;;5.87;;
18076;SDS011;9165;45.714;11.362;2023-06-01T03:46:27;7.97;;;5.13;;
18076;SDS011;9165;45.714;11.362;2023-06-01T03:48:54;5.90;;;5.30;;
18076;SDS011;9165;45.714;11.362;2023-06-01T03:51:20;5.87;;;4.67;;
18076;SDS011;9165;45.714;11.362;2023-06-01T03:53:47;8.30;;;5.40;;
18076;SDS011;9165;45.714;11.362;2023-06-01T03:56:14;7.43;;;5.53;;
18076;SDS011;9165;45.714;11.362;2023-06-01T03:58:40;6.60;;;5.27;;
18076;SDS011;9165;45.714;11.362;2023-06-01T04:01:07;6.07;;;4.80;;
18076;SDS011;9165;45.714;11.362;2023-06-01T04:03:36;11.10;;;5.87;;
18076;SDS011;9165;45.714;11.362;2023-06-01T04:06:03;7.03;;;5.33;;
18076;SDS011;9165;45.714;11.362;2023-06-01T04:08:37;6.80;;;5.13;;
18076;SDS011;9165;45.714;11.362;2023-06-01T04:11:07;11.27;;;5.43;;
18076;SDS011;9165;45.714;11.362;2023-06-01T04:13:34;9.97;;;5.83;;
18076;SDS011;9165;45.714;11.362;2023-06-01T04:16:00;7.27;;;5.17;;
18076;SDS011;9165;45.714;11.362;2023-06-01T04:18:27;7.00;;;5.30;;
18076;SDS011;9165;45.714;11.362;2023-06-01T04:20:55;7.73;;;4.77;;
18076;SDS011;9165;45.714;11.362;2023-06-01T04:23:22;9.17;;;5.57;;
18076;SDS011;9165;45.714;11.362;2023-06-01T04:25:49;9.57;;;5.50;;
18076;SDS011;9165;45.714;11.362;2023-06-01T04:28:16;8.50;;;5.13;;
18076;SDS011;9165;45.714;11.362;2023-06-01T04:30:43;6.50;;;5.47;;
18076;SDS011;9165;45.714;11.362;2023-06-01T04:33:12;11.07;;;5.77;;
18076;SDS011;9165;45.714;11.362;2023-06-01T04:35:39;7.73;;;5.07;;
18076;SDS011;9165;45.714;11.362;2023-06-01T04:38:06;5.83;;;5.13;;
18076;SDS011;9165;45.714;11.362;2023-06-01T04:40:34;8.37;;;5.13;;
18076;SDS011;9165;45.714;11.362;2023-06-01T04:43:00;7.87;;;4.80;;
18076;SDS011;9165;45.714;11.362;2023-06-01T04:45:28;9.07;;;6.10;;
18076;SDS011;9165;45.714;11.362;2023-06-01T04:47:56;7.20;;;5.07;;
18076;SDS011;9165;45.714;11.362;2023-06-01T04:50:23;7.10;;;4.83;;
18076;SDS011;9165;45.714;11.362;2023-06-01T04:52:50;8.30;;;5.50;;
18076;SDS011;9165;45.714;11.362;2023-06-01T04:55:18;9.23;;;5.60;;
18076;SDS011;9165;45.714;11.362;2023-06-01T04:57:45;7.90;;;5.20;;
18076;SDS011;9165;45.714;11.362;2023-06-01T05:00:12;6.90;;;5.60;;
18076;SDS011;9165;45.714;11.362;2023-06-01T05:02:43;7.50;;;5.30;;
18076;SDS011;9165;45.714;11.362;2023-06-01T05:05:11;5.70;;;4.73;;
18076;SDS011;9165;45.714;11.362;2023-06-01T05:07:38;6.87;;;5.00;;
18076;SDS011;9165;45.714;11.362;2023-06-01T05:10:06;6.70;;;5.30;;
18076;SDS011;9165;45.714;11.362;2023-06-01T05:12:34;6.43;;;5.20;;
18076;SDS011;9165;45.714;11.362;2023-06-01T05:15:02;7.90;;;4.93;;
18076;SDS011;9165;45.714;11.362;2023-06-01T05:17:29;6.90;;;4.73;;
18076;SDS011;9165;45.714;11.362;2023-06-01T05:19:55;7.20;;;5.13;;
18076;SDS011;9165;45.714;11.362;2023-06-01T05:22:22;6.30;;;5.37;;
18076;SDS011;9165;45.714;11.362;2023-06-01T05:24:49;8.87;;;5.37;;
18076;SDS011;9165;45.714;11.362;2023-06-01T05:27:16;6.27;;;5.10;;
18076;SDS011;9165;45.714;11.362;2023-06-01T05:29:44;5.87;;;4.77;;
18076;SDS011;9165;45.714;11.362;2023-06-01T05:32:10;11.87;;;5.63;;
18076;SDS011;9165;45.714;11.362;2023-06-01T05:34:37;6.83;;;4.93;;
18076;SDS011;9165;45.714;11.362;2023-06-01T05:37:04;7.70;;;5.07;;
18076;SDS011;9165;45.714;11.362;2023-06-01T05:39:31;7.00;;;5.13;;
18076;SDS011;9165;45.714;11.362;2023-06-01T05:41:57;5.83;;;4.83;;
18076;SDS011;9165;45.714;11.362;2023-06-01T05:44:24;8.27;;;5.93;;
18076;SDS011;9165;45.714;11.362;2023-06-01T05:46:53;7.97;;;5.07;;
18076;SDS011;9165;45.714;11.362;2023-06-01T05:49:19;6.13;;;4.73;;
18076;SDS011;9165;45.714;11.362;2023-06-01T05:51:46;7.20;;;5.50;;
18076;SDS011;9165;45.714;11.362;2023-06-01T05:54:12;8.90;;;5.43;;
18076;SDS011;9165;45.714;11.362;2023-06-01T05:56:39;10.03;;;5.27;;
18076;SDS011;9165;45.714;11.362;2023-06-01T05:59:06;9.83;;;5.10;;
18076;SDS011;9165;45.714;11.362;2023-06-01T06:01:32;6.10;;;4.97;;
18076;SDS011;9165;45.714;11.362;2023-06-01T06:04:00;6.13;;;5.53;;
18076;SDS011;9165;45.714;11.362;2023-06-01T06:06:27;8.37;;;5.20;;
18076;SDS011;9165;45.714;11.362;2023-06-01T06:08:55;6.37;;;4.93;;
18076;SDS011;9165;45.714;11.362;2023-06-01T06:11:22;7.93;;;5.80;;
18076;SDS011;9165;45.714;11.362;2023-06-01T06:13:49;6.10;;;5.50;;
18076;SDS011;9165;45.714;11.362;2023-06-01T06:16:16;8.53;;;5.30;;
18076;SDS011;9165;45.714;11.362;2023-06-01T06:18:42;7.57;;;5.70;;
18076;SDS011;9165;45.714;11.362;2023-06-01T06:21:10;6.07;;;5.20;;
18076;SDS011;9165;45.714;11.362;2023-06-01T06:23:37;9.93;;;4.97;;
18076;SDS011;9165;45.714;11.362;2023-06-01T06:26:05;7.67;;;5.80;;
18076;SDS011;9165;45.714;11.362;2023-06-01T06:28:31;9.23;;;5.03;;
18076;SDS011;9165;45.714;11.362;2023-06-01T06:30:58;11.27;;;5.33;;
18076;SDS011;9165;45.714;11.362;2023-06-01T06:33:25;6.27;;;5.10;;
18076;SDS011;9165;45.714;11.362;2023-06-01T06:35:51;7.73;;;5.93;;
18076;SDS011;9165;45.714;11.362;2023-06-01T06:38:20;6.10;;;5.07;;
18076;SDS011;9165;45.714;11.362;2023-06-01T06:40:47;7.10;;;5.47;;
18076;SDS011;9165;45.714;11.362;2023-06-01T06:43:15;5.93;;;4.93;;
18076;SDS011;9165;45.714;11.362;2023-06-01T06:45:43;10.87;;;4.73;;
18076;SDS011;9165;45.714;11.362;2023-06-01T06:48:09;7.70;;;5.30;;
18076;SDS011;9165;45.714;11.362;2023-06-01T06:50:36;7.00;;;5.23;;
18076;SDS011;9165;45.714;11.362;2023-06-01T06:53:03;7.73;;;5.07;;
18076;SDS011;9165;45.714;11.362;2023-06-01T06:55:32;11.43;;;5.20;;
18076;SDS011;9165;45.714;11.362;2023-06-01T06:57:58;7.37;;;5.20;;
18076;SDS011;9165;45.714;11.362;2023-06-01T07:00:26;9.33;;;5.07;;
18076;SDS011;9165;45.714;11.362;2023-06-01T07:02:52;7.60;;;5.70;;
18076;SDS011;9165;45.714;11.362;2023-06-01T07:05:19;6.80;;;5.07;;
18076;SDS011;9165;45.714;11.362;2023-06-01T07:07:46;7.00;;;4.53;;
18076;SDS011;9165;45.714;11.362;2023-06-01T07:10:13;10.93;;;5.10;;
18076;SDS011;9165;45.714;11.362;2023-06-01T07:12:41;9.83;;;4.87;;
18076;SDS011;9165;45.714;11.362;2023-06-01T07:15:08;7.10;;;5.40;;
18076;SDS011;9165;45.714;11.362;2023-06-01T07:17:35;7.47;;;5.07;;
18076;SDS011;9165;45.714;11.362;2023-06-01T07:20:03;10.73;;;5.60;;
18076;SDS011;9165;45.714;11.362;2023-06-01T07:22:31;8.93;;;4.97;;
18076;SDS011;9165;45.714;11.362;2023-06-01T07:24:58;6.23;;;5.03;;
18076;SDS011;9165;45.714;11.362;2023-06-01T07:27:24;5.77;;;4.87;;
18076;SDS011;9165;45.714;11.362;2023-06-01T07:29:52;8.37;;;5.10;;
18076;SDS011;9165;45.714;11.362;2023-06-01T07:32:21;7.13;;;4.80;;
18076;SDS011;9165;45.714;11.362;2023-06-01T07:34:47;12.53;;;4.87;;
18076;SDS011;9165;45.714;11.362;2023-06-01T07:37:14;7.27;;;5.23;;
18076;SDS011;9165;45.714;11.362;2023-06-01T07:39:46;6.07;;;5.13;;
18076;SDS011;9165;45.714;11.362;2023-06-01T07:42:13;10.40;;;5.13;;
18076;SDS011;9165;45.714;11.362;2023-06-01T07:44:40;10.23;;;4.90;;
18076;SDS011;9165;45.714;11.362;2023-06-01T07:47:08;9.30;;;4.67;;
18076;SDS011;9165;45.714;11.362;2023-06-01T07:49:35;8.30;;;5.60;;
18076;SDS011;9165;45.714;11.362;2023-06-01T07:52:01;6.40;;;5.00;;
18076;SDS011;9165;45.714;11.362;2023-06-01T07:54:28;9.50;;;5.13;;
18076;SDS011;9165;45.714;11.362;2023-06-01T07:56:55;7.77;;;4.80;;
18076;SDS011;9165;45.714;11.362;2023-06-01T07:59:23;8.23;;;5.17;;
18076;SDS011;9165;45.714;11.362;2023-06-01T08:01:50;9.20;;;5.40;;
18076;SDS011;9165;45.714;11.362;2023-06-01T08:04:18;9.03;;;4.73;;
18076;SDS011;9165;45.714;11.362;2023-06-01T08:06:46;12.50;;;5.00;;
18076;SDS011;9165;45.714;11.362;2023-06-01T08:09:12;9.23;;;5.30;;
18076;SDS011;9165;45.714;11.362;2023-06-01T08:11:39;6.17;;;4.67;;
18076;SDS011;9165;45.714;11.362;2023-06-01T08:14:06;8.37;;;5.30;;
18076;SDS011;9165;45.714;11.362;2023-06-01T08:16:33;6.73;;;4.97;;
18076;SDS011;9165;45.714;11.362;2023-06-01T08:19:00;8.07;;;4.23;;
18076;SDS011;9165;45.714;11.362;2023-06-01T08:21:29;5.73;;;5.10;;
18076;SDS011;9165;45.714;11.362;2023-06-01T08:23:56;8.23;;;5.13;;
18076;SDS011;9165;45.714;11.362;2023-06-01T08:26:24;8.90;;;4.63;;
18076;SDS011;9165;45.714;11.362;2023-06-01T08:28:50;7.70;;;5.43;;
18076;SDS011;9165;45.714;11.362;2023-06-01T08:31:18;6.70;;;5.00;;
18076;SDS011;9165;45.714;11.362;2023-06-01T08:33:44;6.43;;;5.53;;
18076;SDS011;9165;45.714;11.362;2023-06-01T08:36:11;7.23;;;5.17;;
18076;SDS011;9165;45.714;11.362;2023-06-01T08:38:40;11.30;;;5.40;;
18076;SDS011;9165;45.714;11.362;2023-06-01T08:41:10;7.23;;;5.17;;
18076;SDS011;9165;45.714;11.362;2023-06-01T08:43:37;6.50;;;4.90;;
18076;SDS011;9165;45.714;11.362;2023-06-01T08:46:05;8.37;;;5.47;;
18076;SDS011;9165;45.714;11.362;2023-06-01T08:48:31;6.50;;;5.13;;
18076;SDS011;9165;45.714;11.362;2023-06-01T08:50:58;7.87;;;4.80;;
18076;SDS011;9165;45.714;11.362;2023-06-01T08:53:25;6.13;;;5.03;;
18076;SDS011;9165;45.714;11.362;2023-06-01T08:55:55;9.10;;;5.50;;
18076;SDS011;9165;45.714;11.362;2023-06-01T08:58:22;7.60;;;4.90;;
18076;SDS011;9165;45.714;11.362;2023-06-01T09:00:49;6.50;;;4.97;;
18076;SDS011;9165;45.714;11.362;2023-06-01T09:03:18;7.50;;;5.60;;
18076;SDS011;9165;45.714;11.362;2023-06-01T09:05:45;9.77;;;5.23;;
18076;SDS011;9165;45.714;11.362;2023-06-01T09:08:12;9.23;;;5.37;;
18076;SDS011;9165;45.714;11.362;2023-06-01T09:10:38;9.73;;;5.30;;
18076;SDS011;9165;45.714;11.362;2023-06-01T09:13:06;8.60;;;5.30;;
18076;SDS011;9165;45.714;11.362;2023-06-01T09:15:33;8.93;;;5.40;;
18076;SDS011;9165;45.714;11.362;2023-06-01T09:18:06;7.80;;;5.53;;
18076;SDS011;9165;45.714;11.362;2023-06-01T09:20:35;9.83;;;5.27;;
18076;SDS011;9165;45.714;11.362;2023-06-01T09:23:03;9.77;;;5.13;;
18076;SDS011;9165;45.714;11.362;2023-06-01T09:25:30;6.60;;;5.40;;
18076;SDS011;9165;45.714;11.362;2023-06-01T09:27:57;8.13;;;6.67;;
18076;SDS011;9165;45.714;11.362;2023-06-01T09:30:26;8.47;;;5.70;;
18076;SDS011;9165;45.714;11.362;2023-06-01T09:33:06;12.63;;;6.10;;
18076;SDS011;9165;45.714;11.362;2023-06-01T09:35:40;15.10;;;5.80;;
18076;SDS011;9165;45.714;11.362;2023-06-01T09:38:06;13.60;;;5.87;;
18076;SDS011;9165;45.714;11.362;2023-06-01T09:40:34;7.87;;;5.70;;
18076;SDS011;9165;45.714;11.362;2023-06-01T09:43:00;9.13;;;6.10;;
18076;SDS011;9165;45.714;11.362;2023-06-01T09:45:30;8.07;;;5.30;;
18076;SDS011;9165;45.714;11.362;2023-06-01T09:48:01;13.07;;;5.53;;
18076;SDS011;9165;45.714;11.362;2023-06-01T09:50:40;7.07;;;4.83;;
18076;SDS011;9165;45.714;11.362;2023-06-01T09:53:08;6.90;;;5.77;;
18076;SDS011;9165;45.714;11.362;2023-06-01T09:55:34;7.67;;;5.43;;
18076;SDS011;9165;45.714;11.362;2023-06-01T10:00:43;8.83;;;5.47;;
18076;SDS011;9165;45.714;11.362;2023-06-01T10:03:11;8.40;;;5.50;;
18076;SDS011;9165;45.714;11.362;2023-06-01T10:05:38;6.47;;;5.67;;
18076;SDS011;9165;45.714;11.362;2023-06-01T10:08:05;7.47;;;4.87;;
18076;SDS011;9165;45.714;11.362;2023-06-01T10:10:32;10.83;;;5.63;;
18076;SDS011;9165;45.714;11.362;2023-06-01T10:12:59;8.73;;;5.07;;
18076;SDS011;9165;45.714;11.362;2023-06-01T10:15:26;9.27;;;5.13;;
18076;SDS011;9165;45.714;11.362;2023-06-01T10:17:53;5.90;;;5.10;;
18076;SDS011;9165;45.714;11.362;2023-06-01T10:20:20;7.43;;;5.37;;
18076;SDS011;9165;45.714;11.362;2023-06-01T10:22:47;9.33;;;5.40;;
18076;SDS011;9165;45.714;11.362;2023-06-01T10:25:14;12.03;;;6.00;;
18076;SDS011;9165;45.714;11.362;2023-06-01T10:27:45;7.47;;;5.27;;
18076;SDS011;9165;45.714;11.362;2023-06-01T10:30:17;8.87;;;5.97;;
18076;SDS011;9165;45.714;11.362;2023-06-01T10:32:44;9.60;;;5.97;;
18076;SDS011;9165;45.714;11.362;2023-06-01T10:40:39;10.83;;;5.97;;
18076;SDS011;9165;45.714;11.362;2023-06-01T10:43:06;8.83;;;6.07;;
18076;SDS011;9165;45.714;11.362;2023-06-01T10:45:37;7.00;;;6.07;;
18076;SDS011;9165;45.714;11.362;2023-06-01T10:48:04;7.87;;;6.10;;
18076;SDS011;9165;45.714;11.362;2023-06-01T10:50:31;12.33;;;6.50;;
18076;SDS011;9165;45.714;11.362;2023-06-01T10:53:22;9.07;;;5.97;;
18076;SDS011;9165;45.714;11.362;2023-06-01T10:55:46;11.30;;;6.70;;
18076;SDS011;9165;45.714;11.362;2023-06-01T10:58:19;10.70;;;6.57;;
18076;SDS011;9165;45.714;11.362;2023-06-01T11:00:47;10.73;;;6.83;;
18076;SDS011;9165;45.714;11.362;2023-06-01T11:03:14;8.70;;;6.43;;
18076;SDS011;9165;45.714;11.362;2023-06-01T11:05:43;10.00;;;6.17;;
18076;SDS011;9165;45.714;11.362;2023-06-01T11:10:58;9.00;;;6.50;;
18076;SDS011;9165;45.714;11.362;2023-06-01T11:13:26;8.57;;;6.43;;
18076;SDS011;9165;45.714;11.362;2023-06-01T11:18:44;9.20;;;6.57;;
18076;SDS011;9165;45.714;11.362;2023-06-01T11:21:15;12.20;;;7.47;;
18076;SDS011;9165;45.714;11.362;2023-06-01T11:23:42;8.57;;;6.83;;
18076;SDS011;9165;45.714;11.362;2023-06-01T11:26:12;8.80;;;6.67;;
18076;SDS011;9165;45.714;11.362;2023-06-01T11:28:40;9.13;;;7.20;;
18076;SDS011;9165;45.714;11.362;2023-06-01T11:31:08;10.48;;;6.93;;
18076;SDS011;9165;45.714;11.362;2023-06-01T11:33:37;8.17;;;6.93;;
18076;SDS011;9165;45.714;11.362;2023-06-01T11:36:04;7.30;;;6.53;;
18076;SDS011;9165;45.714;11.362;2023-06-01T11:38:32;6.93;;;6.07;;
18076;SDS011;9165;45.714;11.362;2023-06-01T11:40:58;8.57;;;6.13;;
18076;SDS011;9165;45.714;11.362;2023-06-01T11:43:28;9.10;;;7.03;;
18076;SDS011;9165;45.714;11.362;2023-06-01T11:46:00;8.10;;;6.53;;
18076;SDS011;9165;45.714;11.362;2023-06-01T11:48:27;11.30;;;6.28;;
18076;SDS011;9165;45.714;11.362;2023-06-01T11:50:53;10.48;;;6.57;;
18076;SDS011;9165;45.714;11.362;2023-06-01T11:53:20;8.55;;;6.07;;
18076;SDS011;9165;45.714;11.362;2023-06-01T11:55:47;9.90;;;5.88;;
18076;SDS011;9165;45.714;11.362;2023-06-01T11:58:19;9.18;;;5.63;;
18076;SDS011;9165;45.714;11.362;2023-06-01T12:00:48;9.25;;;6.15;;
18076;SDS011;9165;45.714;11.362;2023-06-01T12:03:15;11.43;;;5.60;;
18076;SDS011;9165;45.714;11.362;2023-06-01T12:05:43;9.80;;;5.85;;
18076;SDS011;9165;45.714;11.362;2023-06-01T12:08:12;9.52;;;6.00;;
18076;SDS011;9165;45.714;11.362;2023-06-01T12:10:40;10.88;;;6.03;;
18076;SDS011;9165;45.714;11.362;2023-06-01T12:13:08;7.80;;;5.68;;
18076;SDS011;9165;45.714;11.362;2023-06-01T12:15:36;10.60;;;5.97;;
18076;SDS011;9165;45.714;11.362;2023-06-01T12:18:04;8.77;;;5.68;;
18076;SDS011;9165;45.714;11.362;2023-06-01T12:20:31;6.95;;;6.03;;
18076;SDS011;9165;45.714;11.362;2023-06-01T12:22:58;8.85;;;5.30;;
18076;SDS011;9165;45.714;11.362;2023-06-01T12:25:28;9.05;;;6.28;;
18076;SDS011;9165;45.714;11.362;2023-06-01T12:27:59;10.05;;;5.93;;
18076;SDS011;9165;45.714;11.362;2023-06-01T12:30:26;11.23;;;5.25;;
18076;SDS011;9165;45.714;11.362;2023-06-01T12:32:53;9.70;;;5.80;;
18076;SDS011;9165;45.714;11.362;2023-06-01T12:35:21;16.35;;;6.57;;
18076;SDS011;9165;45.714;11.362;2023-06-01T12:38:01;11.15;;;6.50;;
18076;SDS011;9165;45.714;11.362;2023-06-01T12:40:28;10.55;;;6.20;;
18076;SDS011;9165;45.714;11.362;2023-06-01T12:42:54;9.75;;;6.30;;
18076;SDS011;9165;45.714;11.362;2023-06-01T12:45:21;10.80;;;6.30;;
18076;SDS011;9165;45.714;11.362;2023-06-01T12:47:48;9.55;;;6.43;;
18076;SDS011;9165;45.714;11.362;2023-06-01T12:50:14;8.93;;;7.30;;
18076;SDS011;9165;45.714;11.362;2023-06-01T12:52:43;9.68;;;6.85;;
18076;SDS011;9165;45.714;11.362;2023-06-01T12:55:09;8.68;;;6.53;;
18076;SDS011;9165;45.714;11.362;2023-06-01T12:57:36;11.60;;;6.20;;
18076;SDS011;9165;45.714;11.362;2023-06-01T13:00:04;8.48;;;5.93;;
18076;SDS011;9165;45.714;11.362;2023-06-01T13:02:31;7.00;;;6.07;;
18076;SDS011;9165;45.714;11.362;2023-06-01T13:04:58;10.20;;;7.20;;
18076;SDS011;9165;45.714;11.362;2023-06-01T13:07:25;15.65;;;7.13;;
18076;SDS011;9165;45.714;11.362;2023-06-01T13:09:53;9.25;;;6.30;;
18076;SDS011;9165;45.714;11.362;2023-06-01T13:12:19;8.82;;;6.60;;
18076;SDS011;9165;45.714;11.362;2023-06-01T13:14:46;8.00;;;6.28;;
18076;SDS011;9165;45.714;11.362;2023-06-01T13:17:13;9.40;;;6.32;;
18076;SDS011;9165;45.714;11.362;2023-06-01T13:19:40;7.50;;;6.70;;
18076;SDS011;9165;45.714;11.362;2023-06-01T13:22:07;9.85;;;6.22;;
18076;SDS011;9165;45.714;11.362;2023-06-01T13:24:34;7.35;;;6.20;;
18076;SDS011;9165;45.714;11.362;2023-06-01T13:27:03;6.90;;;5.72;;
18076;SDS011;9165;45.714;11.362;2023-06-01T13:29:30;13.70;;;6.68;;
18076;SDS011;9165;45.714;11.362;2023-06-01T13:31:57;10.32;;;6.63;;
18076;SDS011;9165;45.714;11.362;2023-06-01T13:34:24;7.90;;;6.22;;
18076;SDS011;9165;45.714;11.362;2023-06-01T13:36:50;11.95;;;6.95;;
18076;SDS011;9165;45.714;11.362;2023-06-01T13:39:17;7.50;;;5.85;;
18076;SDS011;9165;45.714;11.362;2023-06-01T13:41:44;10.23;;;6.60;;
18076;SDS011;9165;45.714;11.362;2023-06-01T13:44:15;10.57;;;6.72;;
18076;SDS011;9165;45.714;11.362;2023-06-01T13:46:44;12.15;;;6.63;;
18076;SDS011;9165;45.714;11.362;2023-06-01T13:49:11;8.70;;;6.28;;
18076;SDS011;9165;45.714;11.362;2023-06-01T13:51:38;7.85;;;5.72;;
18076;SDS011;9165;45.714;11.362;2023-06-01T13:54:07;9.75;;;6.20;;
18076;SDS011;9165;45.714;11.362;2023-06-01T13:56:34;12.05;;;6.47;;
18076;SDS011;9165;45.714;11.362;2023-06-01T13:59:00;6.93;;;5.63;;
18076;SDS011;9165;45.714;11.362;2023-06-01T14:01:29;9.50;;;7.10;;
18076;SDS011;9165;45.714;11.362;2023-06-01T14:03:56;8.33;;;7.10;;
18076;SDS011;9165;45.714;11.362;2023-06-01T14:06:23;9.53;;;6.60;;
18076;SDS011;9165;45.714;11.362;2023-06-01T14:08:50;9.17;;;6.37;;
18076;SDS011;9165;45.714;11.362;2023-06-01T14:11:17;7.17;;;6.43;;
18076;SDS011;9165;45.714;11.362;2023-06-01T14:13:43;7.80;;;5.83;;
18076;SDS011;9165;45.714;11.362;2023-06-01T14:16:10;10.90;;;6.80;;
18076;SDS011;9165;45.714;11.362;2023-06-01T14:18:38;8.73;;;5.80;;
18076;SDS011;9165;45.714;11.362;2023-06-01T14:21:06;11.87;;;6.70;;
18076;SDS011;9165;45.714;11.362;2023-06-01T14:23:32;6.67;;;5.77;;
18076;SDS011;9165;45.714;11.362;2023-06-01T14:25:59;7.33;;;5.87;;
18076;SDS011;9165;45.714;11.362;2023-06-01T14:28:26;7.57;;;6.43;;
18076;SDS011;9165;45.714;11.362;2023-06-01T14:31:07;8.50;;;6.43;;
18076;SDS011;9165;45.714;11.362;2023-06-01T14:33:34;8.50;;;6.47;;
18076;SDS011;9165;45.714;11.362;2023-06-01T14:36:02;8.27;;;6.67;;
18076;SDS011;9165;45.714;11.362;2023-06-01T14:38:30;9.23;;;6.17;;
18076;SDS011;9165;45.714;11.362;2023-06-01T14:41:02;9.30;;;7.07;;
18076;SDS011;9165;45.714;11.362;2023-06-01T14:43:29;10.47;;;6.63;;
18076;SDS011;9165;45.714;11.362;2023-06-01T14:45:56;7.37;;;6.50;;
18076;SDS011;9165;45.714;11.362;2023-06-01T14:48:23;7.63;;;6.07;;
18076;SDS011;9165;45.714;11.362;2023-06-01T14:50:50;9.20;;;6.43;;
18076;SDS011;9165;45.714;11.362;2023-06-01T14:53:18;12.40;;;6.50;;
18076;SDS011;9165;45.714;11.362;2023-06-01T14:55:44;12.90;;;5.80;;
18076;SDS011;9165;45.714;11.362;2023-06-01T14:58:11;9.97;;;7.47;;
18076;SDS011;9165;45.714;11.362;2023-06-01T15:00:38;14.70;;;5.53;;
18076;SDS011;9165;45.714;11.362;2023-06-01T15:03:05;10.87;;;6.50;;